createdAt,value
2023-09-27T00:01:30.480Z,15.45
2023-09-27T00:04:32.128Z,15.46
2023-09-27T00:07:33.755Z,15.48
2023-09-27T00:10:35.462Z,15.47
2023-09-27T00:13:36.948Z,15.44
2023-09-27T00:16:38.571Z,15.45
2023-09-27T00:19:40.131Z,15.41
2023-09-27T00:22:41.605Z,15.40
2023-09-27T00:25:43.136Z,15.36
2023-09-27T00:28:44.660Z,15.34
2023-09-27T00:31:46.223Z,15.34
2023-09-27T00:34:47.883Z,15.31
2023-09-27T00:37:49.486Z,15.30
2023-09-27T00:40:51.057Z,15.28
2023-09-27T00:43:52.632Z,15.28
2023-09-27T00:46:54.217Z,15.29
2023-09-27T00:49:55.860Z,15.28
2023-09-27T00:52:57.490Z,15.28
2023-09-27T00:55:59.060Z,15.28
2023-09-27T00:59:00.697Z,15.23
2023-09-27T01:02:02.293Z,15.24
2023-09-27T01:05:03.883Z,15.20
2023-09-27T01:08:05.435Z,15.18
2023-09-27T01:11:07.113Z,15.19
2023-09-27T01:14:08.639Z,15.14
2023-09-27T01:17:10.312Z,15.14
2023-09-27T01:20:11.895Z,15.11
2023-09-27T01:23:13.526Z,15.09
2023-09-27T01:26:15.191Z,15.08
2023-09-27T01:29:16.736Z,15.09
2023-09-27T01:32:18.598Z,15.10
2023-09-27T01:35:20.218Z,15.07
2023-09-27T01:38:21.849Z,15.03
2023-09-27T01:41:23.474Z,15.01
2023-09-27T01:44:25.039Z,15.04
2023-09-27T01:47:26.645Z,15.04
2023-09-27T01:50:28.241Z,15.01
2023-09-27T01:53:29.799Z,15.01
2023-09-27T01:56:31.409Z,15.01
2023-09-27T01:59:33.004Z,15.02
2023-09-27T02:02:34.664Z,15.02
2023-09-27T02:05:36.258Z,15.03
2023-09-27T02:08:37.901Z,14.98
2023-09-27T02:11:39.511Z,14.96
2023-09-27T02:14:41.032Z,14.94
2023-09-27T02:17:42.615Z,14.94
2023-09-27T02:20:44.443Z,14.92
2023-09-27T02:23:45.949Z,14.88
2023-09-27T02:26:47.450Z,14.91
2023-09-27T02:29:48.971Z,14.92
2023-09-27T02:32:50.544Z,14.86
2023-09-27T02:35:52.049Z,14.87
2023-09-27T02:38:53.776Z,14.88
2023-09-27T02:41:55.512Z,14.86
2023-09-27T02:44:57.006Z,14.83
2023-09-27T02:47:58.626Z,14.82
2023-09-27T02:51:00.306Z,14.82
2023-09-27T02:54:01.830Z,14.83
2023-09-27T02:57:03.455Z,14.83
2023-09-27T03:00:04.917Z,14.82
2023-09-27T03:03:09.390Z,14.82
2023-09-27T03:06:11.001Z,14.82
2023-09-27T03:09:12.499Z,14.85
2023-09-27T03:12:14.029Z,14.89
2023-09-27T03:15:15.548Z,14.86
2023-09-27T03:18:17.200Z,14.84
2023-09-27T03:21:18.814Z,14.87
2023-09-27T03:24:20.311Z,14.85
2023-09-27T03:27:21.791Z,14.84
2023-09-27T03:30:23.301Z,14.80
2023-09-27T03:33:24.991Z,14.79
2023-09-27T03:36:26.542Z,14.76
2023-09-27T03:39:28.093Z,14.76
2023-09-27T03:42:29.593Z,14.76
2023-09-27T03:45:31.062Z,14.75
2023-09-27T03:48:32.688Z,14.72
2023-09-27T03:51:34.253Z,14.72
2023-09-27T03:54:35.734Z,14.73
2023-09-27T03:57:37.225Z,14.75
2023-09-27T04:00:38.804Z,14.74
2023-09-27T04:03:40.512Z,14.73
2023-09-27T04:06:42.209Z,14.74
2023-09-27T04:09:43.806Z,14.73
2023-09-27T04:12:45.373Z,14.72
2023-09-27T04:15:46.910Z,14.74
2023-09-27T04:18:48.485Z,14.75
2023-09-27T04:21:49.992Z,14.75
2023-09-27T04:24:51.561Z,14.75
2023-09-27T04:27:53.077Z,14.77
2023-09-27T04:30:54.595Z,14.76
2023-09-27T04:33:56.148Z,14.75
2023-09-27T04:36:57.660Z,14.77
2023-09-27T04:39:59.321Z,14.76
2023-09-27T04:43:00.772Z,14.73
2023-09-27T04:46:02.345Z,14.75
2023-09-27T04:49:03.937Z,14.72
2023-09-27T04:52:05.449Z,14.72
2023-09-27T04:55:07.001Z,14.72
2023-09-27T04:58:08.644Z,14.73
2023-09-27T05:01:10.182Z,14.72
2023-09-27T05:04:11.781Z,14.70
2023-09-27T05:07:13.379Z,14.71
2023-09-27T05:10:14.920Z,14.70
2023-09-27T05:13:16.456Z,14.72
2023-09-27T05:16:17.987Z,14.73
2023-09-27T05:19:19.548Z,14.76
2023-09-27T05:22:21.081Z,14.78
2023-09-27T05:25:22.622Z,14.81
2023-09-27T05:28:24.349Z,14.82
2023-09-27T05:31:25.948Z,14.83
2023-09-27T05:34:27.558Z,14.82
2023-09-27T05:37:29.038Z,14.79
2023-09-27T05:40:30.523Z,14.77
2023-09-27T05:43:31.991Z,14.78
2023-09-27T05:46:33.554Z,14.79
2023-09-27T05:49:35.075Z,14.78
2023-09-27T05:52:36.637Z,14.77
2023-09-27T05:55:38.166Z,14.78
2023-09-27T05:58:39.674Z,14.78
2023-09-27T06:01:41.169Z,14.78
2023-09-27T06:04:42.694Z,14.79
2023-09-27T06:07:44.202Z,14.81
2023-09-27T06:10:45.716Z,14.82
2023-09-27T06:13:47.278Z,14.83
2023-09-27T06:16:49.974Z,14.84
2023-09-27T06:19:51.540Z,14.82
2023-09-27T06:22:53.125Z,14.84
2023-09-27T06:25:54.654Z,14.85
2023-09-27T06:28:56.196Z,14.87
2023-09-27T06:31:58.209Z,14.86
2023-09-27T06:34:59.749Z,14.85
2023-09-27T06:38:01.343Z,14.82
2023-09-27T06:41:03.009Z,14.86
2023-09-27T06:44:04.619Z,14.91
2023-09-27T06:47:06.264Z,14.93
2023-09-27T06:50:07.993Z,14.93
2023-09-27T06:53:22.403Z,14.94
2023-09-27T06:56:25.304Z,14.96
2023-09-27T06:59:26.816Z,14.99
2023-09-27T07:02:28.485Z,15.01
2023-09-27T07:05:30.133Z,15.02
2023-09-27T07:08:31.835Z,15.04
2023-09-27T07:11:33.421Z,15.02
2023-09-27T07:14:35.130Z,15.03
2023-09-27T07:17:36.770Z,15.07
2023-09-27T07:20:38.409Z,15.10
2023-09-27T07:23:39.924Z,15.12
2023-09-27T07:26:41.446Z,15.13
2023-09-27T07:29:43.117Z,15.15
2023-09-27T07:32:44.720Z,15.18
2023-09-27T07:35:46.591Z,15.22
2023-09-27T07:38:48.281Z,15.24
2023-09-27T07:41:49.865Z,15.25
2023-09-27T07:44:51.387Z,15.26
2023-09-27T07:47:53.063Z,15.28
2023-09-27T07:50:55.126Z,15.32
2023-09-27T07:53:56.771Z,15.38
2023-09-27T07:56:58.444Z,15.42
2023-09-27T07:59:59.925Z,15.44
2023-09-27T08:03:01.554Z,15.45
2023-09-27T08:06:03.209Z,15.49
2023-09-27T08:09:04.827Z,15.55
2023-09-27T08:12:06.372Z,15.65
2023-09-27T08:15:07.968Z,15.80
2023-09-27T08:18:09.749Z,15.90
2023-09-27T08:21:14.131Z,15.99
2023-09-27T08:24:15.623Z,16.05
2023-09-27T08:27:17.385Z,15.98
2023-09-27T08:30:19.214Z,15.96
2023-09-27T08:33:20.827Z,15.93
2023-09-27T08:36:22.410Z,15.95
2023-09-27T08:39:23.872Z,16.02
2023-09-27T08:42:25.905Z,16.09
2023-09-27T08:45:27.437Z,16.03
2023-09-27T08:51:30.494Z,16.00
2023-09-27T08:54:32.144Z,16.06
2023-09-27T08:57:33.615Z,16.03
2023-09-27T09:00:35.135Z,16.01
2023-09-27T09:03:37.038Z,16.00
2023-09-27T09:06:38.685Z,15.96
2023-09-27T09:09:40.479Z,15.95
2023-09-27T09:12:42.110Z,15.99
2023-09-27T09:15:43.807Z,16.03
2023-09-27T09:18:48.416Z,16.00
2023-09-27T09:21:49.944Z,15.97
2023-09-27T09:24:51.530Z,16.05
2023-09-27T09:27:53.013Z,16.01
2023-09-27T09:30:54.551Z,16.07
2023-09-27T09:33:56.373Z,16.09
2023-09-27T09:36:58.058Z,16.04
2023-09-27T09:39:59.615Z,16.08
2023-09-27T09:43:01.215Z,16.13
2023-09-27T09:46:03.015Z,16.22
2023-09-27T09:49:04.780Z,16.15
2023-09-27T09:52:06.314Z,16.18
2023-09-27T09:55:19.995Z,16.13
2023-09-27T09:58:29.252Z,16.15
2023-09-27T10:01:30.837Z,16.15
2023-09-27T10:04:32.353Z,16.13
2023-09-27T10:07:33.910Z,16.16
2023-09-27T10:10:35.417Z,16.18
2023-09-27T10:13:36.941Z,16.22
2023-09-27T10:16:38.524Z,16.19
2023-09-27T10:19:40.109Z,16.17
2023-09-27T10:22:44.087Z,16.25
2023-09-27T10:25:46.006Z,16.21
2023-09-27T10:31:48.975Z,16.26
2023-09-27T10:34:50.492Z,16.27
2023-09-27T10:37:52.068Z,16.32
2023-09-27T10:40:53.602Z,16.35
2023-09-27T10:43:55.136Z,16.27
2023-09-27T10:46:56.644Z,16.38
2023-09-27T10:49:58.185Z,16.32
2023-09-27T10:52:59.767Z,16.44
2023-09-27T10:56:01.260Z,16.39
2023-09-27T10:59:02.765Z,16.31
2023-09-27T11:02:04.412Z,16.31
2023-09-27T11:05:05.967Z,16.39
2023-09-27T11:08:07.458Z,16.42
2023-09-27T11:11:09.097Z,16.43
2023-09-27T11:14:10.711Z,16.45
2023-09-27T11:17:12.384Z,16.48
2023-09-27T11:20:13.973Z,16.55
2023-09-27T11:23:15.718Z,16.52
2023-09-27T11:26:17.356Z,16.42
2023-09-27T11:29:18.909Z,16.46
2023-09-27T11:32:20.475Z,16.45
2023-09-27T11:35:22.008Z,16.43
2023-09-27T11:38:23.579Z,16.62
2023-09-27T11:41:25.246Z,16.55
2023-09-27T11:44:26.785Z,16.60
2023-09-27T11:47:28.583Z,16.55
2023-09-27T11:50:30.230Z,16.54
2023-09-27T11:53:31.868Z,16.49
2023-09-27T11:56:33.459Z,16.46
2023-09-27T11:59:35.043Z,16.43
2023-09-27T12:02:43.901Z,16.48
2023-09-27T12:05:54.282Z,16.51
2023-09-27T12:08:57.739Z,16.46
2023-09-27T12:12:00.533Z,16.54
2023-09-27T12:15:02.062Z,16.55
2023-09-27T12:18:03.822Z,16.50
2023-09-27T12:21:05.629Z,16.54
2023-09-27T12:24:07.259Z,16.50
2023-09-27T12:27:08.788Z,16.46
2023-09-27T12:30:10.324Z,16.48
2023-09-27T12:33:11.954Z,16.46
2023-09-27T12:36:13.545Z,16.44
2023-09-27T12:39:15.033Z,16.47
2023-09-27T12:42:16.557Z,16.53
2023-09-27T12:45:18.068Z,16.52
2023-09-27T12:48:19.672Z,16.57
2023-09-27T12:51:23.346Z,16.56
2023-09-27T12:54:30.493Z,16.58
2023-09-27T12:57:32.034Z,16.61
2023-09-27T13:00:33.550Z,16.57
2023-09-27T13:03:35.180Z,16.58
2023-09-27T13:06:36.720Z,16.59
2023-09-27T13:09:38.250Z,16.58
2023-09-27T13:12:42.306Z,16.56
2023-09-27T13:15:45.160Z,16.55
2023-09-27T13:18:46.626Z,16.54
2023-09-27T13:21:48.124Z,16.62
2023-09-27T13:24:49.636Z,16.56
2023-09-27T13:27:51.182Z,16.57
2023-09-27T13:30:52.696Z,16.63
2023-09-27T13:34:09.508Z,16.67
2023-09-27T13:37:13.173Z,16.62
2023-09-27T13:40:14.691Z,16.65
2023-09-27T13:43:16.234Z,16.66
2023-09-27T13:46:17.903Z,16.58
2023-09-27T13:49:19.491Z,16.58
2023-09-27T13:52:21.095Z,16.62
2023-09-27T13:55:22.633Z,16.61
2023-09-27T13:58:24.153Z,16.59
2023-09-27T14:01:28.310Z,16.62
2023-09-27T14:04:29.898Z,16.59
2023-09-27T14:07:31.540Z,16.60
2023-09-27T14:10:33.087Z,16.63
2023-09-27T14:13:34.654Z,16.63
2023-09-27T14:16:36.232Z,16.61
2023-09-27T14:19:37.854Z,16.62
2023-09-27T14:22:39.477Z,16.62
2023-09-27T14:25:41.350Z,16.64
2023-09-27T14:28:42.915Z,16.64
2023-09-27T14:31:45.549Z,16.64
2023-09-27T14:34:57.726Z,16.66
2023-09-27T14:38:00.111Z,16.66
2023-09-27T14:41:01.682Z,16.69
2023-09-27T14:44:03.475Z,16.68
2023-09-27T14:47:05.085Z,16.66
2023-09-27T14:50:06.734Z,16.64
2023-09-27T14:53:08.325Z,16.66
2023-09-27T14:56:09.879Z,16.67
2023-09-27T14:59:11.684Z,16.65
2023-09-27T15:02:13.548Z,16.66
2023-09-27T15:05:15.121Z,16.67
2023-09-27T15:08:16.800Z,16.67
2023-09-27T15:11:18.392Z,16.66
2023-09-27T15:14:20.065Z,16.67
2023-09-27T15:17:21.572Z,16.66
2023-09-27T15:20:23.175Z,16.66
2023-09-27T15:23:24.681Z,16.69
2023-09-27T15:26:26.410Z,16.68
2023-09-27T15:29:27.989Z,16.68
2023-09-27T15:32:29.780Z,16.68
2023-09-27T15:35:31.619Z,16.70
2023-09-27T15:38:34.499Z,16.69
2023-09-27T15:41:37.764Z,16.69
2023-09-27T15:44:39.324Z,16.71
2023-09-27T15:47:40.846Z,16.70
2023-09-27T15:50:42.551Z,16.72
2023-09-27T15:53:44.180Z,16.70
2023-09-27T15:56:45.821Z,16.70
2023-09-27T15:59:47.356Z,16.72
2023-09-27T16:02:48.868Z,16.74
2023-09-27T16:05:50.551Z,16.74
2023-09-27T16:08:52.142Z,16.74
2023-09-27T16:11:53.669Z,16.72
2023-09-27T16:14:55.294Z,16.74
2023-09-27T16:17:56.900Z,16.72
2023-09-27T16:20:58.514Z,16.74
2023-09-27T16:24:00.185Z,16.72
2023-09-27T16:27:01.885Z,16.72
2023-09-27T16:30:03.402Z,16.74
2023-09-27T16:33:05.870Z,16.74
2023-09-27T16:36:07.418Z,16.75
2023-09-27T16:39:09.014Z,16.75
2023-09-27T16:42:10.611Z,16.76
2023-09-27T16:45:12.108Z,16.76
2023-09-27T16:48:13.663Z,16.78
2023-09-27T16:51:15.149Z,16.79
2023-09-27T16:54:16.713Z,16.80
2023-09-27T16:57:18.212Z,16.82
2023-09-27T17:00:19.832Z,16.82
2023-09-27T17:03:21.440Z,16.83
2023-09-27T17:06:22.955Z,16.84
2023-09-27T17:09:24.487Z,16.84
2023-09-27T17:12:25.986Z,16.86
2023-09-27T17:15:27.615Z,16.86
2023-09-27T17:18:30.317Z,16.86
2023-09-27T17:21:33.572Z,16.86
2023-09-27T17:24:35.076Z,16.88
2023-09-27T17:27:36.642Z,16.88
2023-09-27T17:30:38.123Z,16.91
2023-09-27T17:33:39.739Z,16.89
2023-09-27T17:36:41.503Z,16.92
2023-09-27T17:39:43.031Z,16.90
2023-09-27T17:42:44.658Z,16.91
2023-09-27T17:45:46.235Z,16.92
2023-09-27T17:48:47.784Z,16.90
2023-09-27T17:51:49.449Z,16.92
2023-09-27T17:54:50.957Z,16.91
2023-09-27T17:57:52.450Z,16.91
2023-09-27T18:00:53.940Z,16.91
2023-09-27T18:03:55.678Z,16.89
2023-09-27T18:06:57.521Z,16.90
2023-09-27T18:09:59.072Z,16.89
2023-09-27T18:13:00.608Z,16.89
2023-09-27T18:16:02.266Z,16.88
2023-09-27T18:19:03.782Z,16.88
2023-09-27T18:22:05.518Z,16.87
2023-09-27T18:25:07.129Z,16.86
2023-09-27T18:28:08.614Z,16.86
2023-09-27T18:31:10.129Z,16.85
2023-09-27T18:34:11.620Z,16.84
2023-09-27T18:37:13.262Z,16.83
2023-09-27T18:40:14.871Z,16.82
2023-09-27T18:43:16.412Z,16.79
2023-09-27T18:46:17.991Z,16.80
2023-09-27T18:49:19.551Z,16.78
2023-09-27T18:52:21.036Z,16.76
2023-09-27T18:55:22.572Z,16.76
2023-09-27T18:58:24.120Z,16.74
2023-09-27T19:01:25.721Z,16.73
2023-09-27T19:04:27.514Z,16.71
2023-09-27T19:07:29.165Z,16.70
2023-09-27T19:10:30.726Z,16.68
2023-09-27T19:13:32.288Z,16.67
2023-09-27T19:16:33.902Z,16.67
2023-09-27T19:19:35.536Z,16.65
2023-09-27T19:22:37.192Z,16.64
2023-09-27T19:25:38.851Z,16.63
2023-09-27T19:28:40.408Z,16.63
2023-09-27T19:31:41.978Z,16.61
2023-09-27T19:34:43.615Z,16.58
2023-09-27T19:37:45.324Z,16.58
2023-09-27T19:40:46.914Z,16.57
2023-09-27T19:43:48.661Z,16.56
2023-09-27T19:46:50.272Z,16.54
2023-09-27T19:49:51.875Z,16.54
2023-09-27T19:52:53.529Z,16.52
2023-09-27T19:55:55.232Z,16.52
2023-09-27T19:58:56.812Z,16.51
2023-09-27T20:01:58.460Z,16.51
2023-09-27T20:05:00.190Z,16.51
2023-09-27T20:08:01.809Z,16.54
2023-09-27T20:11:03.397Z,16.51
2023-09-27T20:14:04.998Z,16.47
2023-09-27T20:17:06.777Z,16.48
2023-09-27T20:20:08.346Z,16.46
2023-09-27T20:23:10.049Z,16.46
2023-09-27T20:26:11.555Z,16.45
2023-09-27T20:29:13.072Z,16.44
2023-09-27T20:32:14.635Z,16.42
2023-09-27T20:35:16.191Z,16.41
2023-09-27T20:38:17.696Z,16.39
2023-09-27T20:41:19.187Z,16.39
2023-09-27T20:44:20.720Z,16.39
2023-09-27T20:47:22.320Z,16.35
2023-09-27T20:50:23.843Z,16.33
2023-09-27T20:53:25.367Z,16.33
2023-09-27T20:56:26.914Z,16.31
2023-09-27T20:59:28.429Z,16.29
2023-09-27T21:02:30.182Z,16.29
2023-09-27T21:05:31.762Z,16.27
2023-09-27T21:08:33.269Z,16.25
2023-09-27T21:11:34.774Z,16.26
2023-09-27T21:14:36.262Z,16.24
2023-09-27T21:17:37.843Z,16.24
2023-09-27T21:20:39.413Z,16.22
2023-09-27T21:23:40.940Z,16.22
2023-09-27T21:26:42.396Z,16.23
2023-09-27T21:29:43.903Z,16.21
2023-09-27T21:32:45.479Z,16.21
2023-09-27T21:35:47.036Z,16.21
2023-09-27T21:38:48.695Z,16.17
2023-09-27T21:41:50.270Z,16.16
2023-09-27T21:44:51.859Z,16.18
2023-09-27T21:47:53.442Z,16.18
2023-09-27T21:50:55.095Z,16.16
2023-09-27T21:53:56.625Z,16.14
2023-09-27T21:56:58.167Z,16.15
2023-09-27T21:59:59.896Z,16.16
2023-09-27T22:03:01.461Z,16.14
2023-09-27T22:06:03.091Z,16.11
2023-09-27T22:09:04.643Z,16.12
2023-09-27T22:12:06.176Z,16.10
2023-09-27T22:15:07.769Z,16.10
2023-09-27T22:18:09.304Z,16.08
2023-09-27T22:21:10.822Z,16.07
2023-09-27T22:24:12.410Z,16.06
2023-09-27T22:27:14.639Z,16.07
2023-09-27T22:30:16.246Z,16.08
2023-09-27T22:33:17.878Z,16.05
2023-09-27T22:36:19.456Z,16.04
2023-09-27T22:39:21.015Z,16.05
2023-09-27T22:42:22.539Z,16.06
2023-09-27T22:45:24.187Z,16.06
2023-09-27T22:48:25.686Z,16.03
2023-09-27T22:51:27.284Z,16.06
2023-09-27T22:54:28.816Z,16.07
2023-09-27T22:57:30.335Z,16.03
2023-09-27T23:00:31.853Z,16.03
2023-09-27T23:03:33.524Z,16.04
2023-09-27T23:06:35.128Z,16.03
2023-09-27T23:09:37.467Z,16.04
2023-09-27T23:12:39.252Z,16.04
2023-09-27T23:15:40.911Z,16.03
2023-09-27T23:18:42.577Z,16.02
2023-09-27T23:21:44.132Z,16.02
2023-09-27T23:24:45.700Z,16.03
2023-09-27T23:27:47.206Z,16.04
2023-09-27T23:30:48.749Z,16.03
2023-09-27T23:33:50.246Z,16.01
2023-09-27T23:36:51.767Z,16.01
2023-09-27T23:39:53.279Z,15.99
2023-09-27T23:42:54.924Z,16.00
2023-09-27T23:45:56.512Z,16.00
2023-09-27T23:48:58.020Z,16.00
2023-09-27T23:51:59.556Z,16.03
2023-09-27T23:55:01.065Z,15.97
2023-09-27T23:58:02.644Z,16.02
